Wing-it — WINGIT — position and weather

sailwx.info

Track history (hours):
 
Tides and Currents Weather Stations Pressure Air Temp Water Temp Dewpoint Dewpoint Depression Visibility Wind Speed Wind Dir Waves Ship Positions

Wing-it

Last reported at 2018-Jul-19 01:22 UTC. Time now 2018-Jul-20 08:25 UTC.
Position N 40°43' W 074°03'.

Length 15 m; draft 2.2 m.

Type: Sailing vessel. MMSI: 338096762.

Date/timePositionNaut miles runAvg speedWind from/ knotsBaromVisibWave heightAir tempDewpointWater temp
2018-Jul-19 01:22N 40°43' W 074°03'0 0.0
2018-Jul-19 00:59N 40°43' W 074°03'0 0.0
2018-Jul-19 00:29N 40°43' W 074°03'0 0.0
2018-Jul-18 23:59N 40°43' W 074°03'0 0.0
2018-Jul-18 23:30N 40°43' W 074°03'1 2.1
2018-Jul-18 22:58N 40°42' W 074°01'1 1.1
2018-Jul-18 22:28N 40°42' W 074°02'0 0.3
2018-Jul-18 21:59N 40°43' W 074°02'  
2018-Jul-15 12:35N 40°43' W 074°03'0 0.0
2018-Jul-15 12:30N 40°43' W 074°03'0 0.0
2018-Jul-15 12:00N 40°43' W 074°03'0 0.0
2018-Jul-15 11:24N 40°43' W 074°03'0 0.0
2018-Jul-15 11:00N 40°43' W 074°03'0 0.0
2018-Jul-15 10:30N 40°43' W 074°03'0 0.0
2018-Jul-15 10:00N 40°43' W 074°03'0 0.0
2018-Jul-15 09:30N 40°43' W 074°03'0 0.0
2018-Jul-15 08:58N 40°43' W 074°03'0 0.0
2018-Jul-15 08:30N 40°43' W 074°03'0 0.0
2018-Jul-15 08:00N 40°43' W 074°03'0 0.0
2018-Jul-15 07:30N 40°43' W 074°03'0 0.0
2018-Jul-15 07:00N 40°43' W 074°03'0 0.0
2018-Jul-15 06:30N 40°43' W 074°03'0 0.0
2018-Jul-15 06:00N 40°43' W 074°03'0 0.0
2018-Jul-15 05:30N 40°43' W 074°03'0 0.0
2018-Jul-15 05:00N 40°43' W 074°03'0 0.0
2018-Jul-15 04:30N 40°43' W 074°03'0 0.0
2018-Jul-15 04:00N 40°43' W 074°03'0 0.0
2018-Jul-15 03:30N 40°43' W 074°03'0 0.0
2018-Jul-15 03:00N 40°43' W 074°03'0 0.0
2018-Jul-15 02:29N 40°43' W 074°03'0 0.0
2018-Jul-15 01:59N 40°43' W 074°03'0 0.0
2018-Jul-15 01:30N 40°43' W 074°03'0 0.0
2018-Jul-15 01:00N 40°43' W 074°03'0 0.0
2018-Jul-15 00:30N 40°43' W 074°03'0 0.0
2018-Jul-15 00:00N 40°43' W 074°03'0 0.0
2018-Jul-14 23:28N 40°43' W 074°03'0 0.0
2018-Jul-14 23:00N 40°43' W 074°03'0 0.0
2018-Jul-14 22:31N 40°43' W 074°03'2 2.9
2018-Jul-14 21:48N 40°41' W 074°02'2 0.7
2018-Jul-14 18:37N 40°38' W 074°03'0 2.5
2018-Jul-14 18:30N 40°39' W 074°03'3 4.9
2018-Jul-14 17:57N 40°41' W 074°02'1 3.2
2018-Jul-14 17:31N 40°43' W 074°03'0 0.0
2018-Jul-14 16:34N 40°43' W 074°03'0 0.0
2018-Jul-14 16:30N 40°43' W 074°03'0 0.0
2018-Jul-14 16:00N 40°43' W 074°03'0 0.0
2018-Jul-14 15:30N 40°43' W 074°03'0 0.0
2018-Jul-14 15:00N 40°43' W 074°03'0 0.0
2018-Jul-14 14:30N 40°43' W 074°03'0 0.0
2018-Jul-14 13:28N 40°43' W 074°03'0 0.0
2018-Jul-14 12:58N 40°43' W 074°03'0 0.0
2018-Jul-14 12:30N 40°43' W 074°03'0 0.0
2018-Jul-14 12:01N 40°43' W 074°03'0 0.0
2018-Jul-14 11:30N 40°43' W 074°03'0 0.0
2018-Jul-14 11:00N 40°43' W 074°03'0 0.0
2018-Jul-14 10:31N 40°43' W 074°03'0 0.0
2018-Jul-14 10:00N 40°43' W 074°03'0 0.0
2018-Jul-14 09:31N 40°43' W 074°03'0 0.0
2018-Jul-14 09:00N 40°43' W 074°03'0 0.0
2018-Jul-14 08:30N 40°43' W 074°03'0 0.0
2018-Jul-14 08:00N 40°43' W 074°03'0 0.0
2018-Jul-14 07:30N 40°43' W 074°03'0 0.0
2018-Jul-14 07:00N 40°43' W 074°03'0 0.0
2018-Jul-14 06:30N 40°43' W 074°03'0 0.0
2018-Jul-14 06:00N 40°43' W 074°03'0 0.0
2018-Jul-14 05:30N 40°43' W 074°03'0 0.0
2018-Jul-14 05:00N 40°43' W 074°03'0 0.0
2018-Jul-14 04:30N 40°43' W 074°03'0 0.0
2018-Jul-14 03:59N 40°43' W 074°03'0 0.0
2018-Jul-14 03:30N 40°43' W 074°03'0 0.0
2018-Jul-14 03:01N 40°43' W 074°03'0 0.0
2018-Jul-14 02:30N 40°43' W 074°03'0 0.0
2018-Jul-14 01:58N 40°43' W 074°03'0 0.0
2018-Jul-14 01:27N 40°43' W 074°03'0 0.0
2018-Jul-14 01:00N 40°43' W 074°03'0 0.0
2018-Jul-14 00:30N 40°43' W 074°03'0 0.0
2018-Jul-14 00:00N 40°43' W 074°03'0 0.0
2018-Jul-13 23:28N 40°43' W 074°03'0 0.0
2018-Jul-13 23:00N 40°43' W 074°03'0 0.0
2018-Jul-13 22:30N 40°43' W 074°03'0 0.0
2018-Jul-13 22:00N 40°43' W 074°03'0 0.0
2018-Jul-13 21:28N 40°43' W 074°03'0 0.0
2018-Jul-13 21:00N 40°43' W 074°03'0 0.0
2018-Jul-13 20:30N 40°43' W 074°03'0 0.0
2018-Jul-13 20:00N 40°43' W 074°03'0 0.0
2018-Jul-13 19:31N 40°43' W 074°03'0 0.0
2018-Jul-13 18:58N 40°43' W 074°03'0 0.0
2018-Jul-13 18:27N 40°43' W 074°03'0 0.0
2018-Jul-13 17:57N 40°43' W 074°03'0 0.0
2018-Jul-13 17:30N 40°43' W 074°03'0 0.0
2018-Jul-13 17:00N 40°43' W 074°03'0 0.0
2018-Jul-13 16:27N 40°43' W 074°03'0 0.0
2018-Jul-13 16:00N 40°43' W 074°03'0 0.0
2018-Jul-13 15:29N 40°43' W 074°03'0 0.0
2018-Jul-13 15:00N 40°43' W 074°03'0 0.0
2018-Jul-13 14:00N 40°43' W 074°03'0 0.0
2018-Jul-13 13:30N 40°43' W 074°03'0 0.0
2018-Jul-13 12:58N 40°43' W 074°03'0 0.0
2018-Jul-13 12:25N 40°43' W 074°03'0 0.0
2018-Jul-13 11:56N 40°43' W 074°03'0 0.0
2018-Jul-13 11:30N 40°43' W 074°03'0 0.0
2018-Jul-13 10:55N 40°43' W 074°03'0 0.0
2018-Jul-13 10:30N 40°43' W 074°03'0 0.0
2018-Jul-13 10:00N 40°43' W 074°03'0 0.0
2018-Jul-13 09:30N 40°43' W 074°03'0 0.0
2018-Jul-13 08:56N 40°43' W 074°03'0 0.0
2018-Jul-13 08:30N 40°43' W 074°03'0 0.0
2018-Jul-13 08:00N 40°43' W 074°03'0 0.0
2018-Jul-13 07:30N 40°43' W 074°03'0 0.0
2018-Jul-13 07:00N 40°43' W 074°03'0 0.0
2018-Jul-13 06:30N 40°43' W 074°03'0 0.0
2018-Jul-13 05:57N 40°43' W 074°03'0 0.0
2018-Jul-13 05:30N 40°43' W 074°03'0 0.0
2018-Jul-13 05:00N 40°43' W 074°03'0 0.0
2018-Jul-13 04:30N 40°43' W 074°03'0 0.0
2018-Jul-13 04:00N 40°43' W 074°03'0 0.0
2018-Jul-13 03:30N 40°43' W 074°03'0 0.0
2018-Jul-13 03:00N 40°43' W 074°03'0 0.0
2018-Jul-13 02:30N 40°43' W 074°03'0 0.0
2018-Jul-13 02:00N 40°43' W 074°03'0 0.0
2018-Jul-13 01:27N 40°43' W 074°03'0 0.0
2018-Jul-13 01:00N 40°43' W 074°03'0 0.0
2018-Jul-13 00:30N 40°43' W 074°03'0 0.0
2018-Jul-12 23:51N 40°43' W 074°03'0 0.0
2018-Jul-12 23:17N 40°43' W 074°03'0 0.0
2018-Jul-12 23:00N 40°43' W 074°03'0 0.0
2018-Jul-12 22:31N 40°43' W 074°03'0 0.0
2018-Jul-12 22:01N 40°43' W 074°03'0 0.0
2018-Jul-12 21:31N 40°43' W 074°03'0 0.0
2018-Jul-12 21:00N 40°43' W 074°03'0 0.0
2018-Jul-12 20:30N 40°43' W 074°03'0 0.0
2018-Jul-12 20:00N 40°43' W 074°03'0 0.0
2018-Jul-12 19:30N 40°43' W 074°03'0 0.0
2018-Jul-12 19:00N 40°43' W 074°03'0 0.0
2018-Jul-12 18:30N 40°43' W 074°03'0 0.0
2018-Jul-12 18:00N 40°43' W 074°03'0 0.0
2018-Jul-12 17:24N 40°43' W 074°03'0 0.0
2018-Jul-12 16:58N 40°43' W 074°03'0 0.0
2018-Jul-12 16:28N 40°43' W 074°03'0 0.0
2018-Jul-12 15:58N 40°43' W 074°03'0 0.0
2018-Jul-12 15:28N 40°43' W 074°03'0 0.0
2018-Jul-12 14:58N 40°43' W 074°03'0 0.0
2018-Jul-12 14:28N 40°43' W 074°03'0 0.0
2018-Jul-12 13:58N 40°43' W 074°03'0 0.0
2018-Jul-12 13:23N 40°43' W 074°03'0 0.0
2018-Jul-12 12:57N 40°43' W 074°03'0 0.0
2018-Jul-12 12:28N 40°43' W 074°03'0 0.0
2018-Jul-12 11:58N 40°43' W 074°03'0 0.0
2018-Jul-12 11:28N 40°43' W 074°03'0 0.0
2018-Jul-12 11:00N 40°43' W 074°03'0 0.0
2018-Jul-12 10:30N 40°43' W 074°03'0 0.0
2018-Jul-12 10:00N 40°43' W 074°03'0 0.0
2018-Jul-12 09:30N 40°43' W 074°03'0 0.0
2018-Jul-12 09:00N 40°43' W 074°03'0 0.0
2018-Jul-12 08:30N 40°43' W 074°03'0 0.0
2018-Jul-12 08:00N 40°43' W 074°03'0 0.0
2018-Jul-12 07:30N 40°43' W 074°03'0 0.0
2018-Jul-12 07:00N 40°43' W 074°03'0 0.0
2018-Jul-12 06:30N 40°43' W 074°03'0 0.0
2018-Jul-12 05:59N 40°43' W 074°03'0 0.0
2018-Jul-12 05:30N 40°43' W 074°03'0 0.0
2018-Jul-12 04:54N 40°43' W 074°03'0 0.0
2018-Jul-12 04:30N 40°43' W 074°03'0 0.0
2018-Jul-12 04:00N 40°43' W 074°03'0 0.0
2018-Jul-12 03:30N 40°43' W 074°03'0 0.0
2018-Jul-12 03:00N 40°43' W 074°03'0 0.0
2018-Jul-12 02:29N 40°43' W 074°03'0 0.0
2018-Jul-12 01:57N 40°43' W 074°03'0 0.0
2018-Jul-12 01:26N 40°43' W 074°03'0 0.0
2018-Jul-12 00:56N 40°43' W 074°03'0 0.0
2018-Jul-12 00:28N 40°43' W 074°03'0 0.0
2018-Jul-11 23:59N 40°43' W 074°03'1 1.2
2018-Jul-11 23:26N 40°43' W 074°02'1 2.0
2018-Jul-11 23:01N 40°42' W 074°02'1 1.5
2018-Jul-11 22:30N 40°43' W 074°02'1 0.0
2018-Jul-11 01:46N 40°43' W 074°03'0 0.0
2018-Jul-11 01:26N 40°43' W 074°03'0 0.0
2018-Jul-11 00:56N 40°43' W 074°03'0 0.0
2018-Jul-11 00:30N 40°43' W 074°03'0 0.0
2018-Jul-10 23:58N 40°43' W 074°03'0 0.0
2018-Jul-10 23:09N 40°43' W 074°03'0 0.0
2018-Jul-10 22:46N 40°43' W 074°03'0 0.0
2018-Jul-10 22:16N 40°43' W 074°03'0 0.0
2018-Jul-10 21:52N 40°43' W 074°03'0 0.0
2018-Jul-10 21:19N 40°43' W 074°03'0 0.0
2018-Jul-10 20:04N 40°43' W 074°03'0 0.0
2018-Jul-10 19:57N 40°43' W 074°03'0 0.0
2018-Jul-10 19:17N 40°43' W 074°03'0 0.0
2018-Jul-10 18:53N 40°43' W 074°03'0 0.0
2018-Jul-10 18:25N 40°43' W 074°03'0 0.0
2018-Jul-10 18:01N 40°43' W 074°03'0 0.0
2018-Jul-10 17:25N 40°43' W 074°03'0 0.0
2018-Jul-10 17:01N 40°43' W 074°03'0 0.0
2018-Jul-10 16:30N 40°43' W 074°03'0 0.0
2018-Jul-10 16:00N 40°43' W 074°03'0 0.0
2018-Jul-10 15:28N 40°43' W 074°03'0 0.0
2018-Jul-10 15:00N 40°43' W 074°03'0 0.0
2018-Jul-10 14:30N 40°43' W 074°03'0 0.0
2018-Jul-10 14:00N 40°43' W 074°03'0 0.0
2018-Jul-10 13:31N 40°43' W 074°03'0 0.0
2018-Jul-10 13:01N 40°43' W 074°03'0 0.0
2018-Jul-10 12:30N 40°43' W 074°03'0 0.0
2018-Jul-10 11:58N 40°43' W 074°03'0 0.0
2018-Jul-10 11:21N 40°43' W 074°03'0 0.0
2018-Jul-10 11:00N 40°43' W 074°03'0 0.0
2018-Jul-10 10:28N 40°43' W 074°03'0 0.0
2018-Jul-10 10:00N 40°43' W 074°03'0 0.0
2018-Jul-10 09:25N 40°43' W 074°03'0 0.0
2018-Jul-10 08:56N 40°43' W 074°03'0 0.0
2018-Jul-10 08:25N 40°43' W 074°03'0 0.0
2018-Jul-10 08:00N 40°43' W 074°03'0 0.0
2018-Jul-10 07:27N 40°43' W 074°03'0 0.0
2018-Jul-10 07:00N 40°43' W 074°03'0 0.0
2018-Jul-10 06:31N 40°43' W 074°03'0 0.0
2018-Jul-10 06:01N 40°43' W 074°03'0 0.0
2018-Jul-10 05:30N 40°43' W 074°03'0 0.0
2018-Jul-10 05:00N 40°43' W 074°03'0 0.0
2018-Jul-10 04:31N 40°43' W 074°03'0 0.0
2018-Jul-10 04:01N 40°43' W 074°03'0 0.0
2018-Jul-10 03:30N 40°43' W 074°03'0 0.0
2018-Jul-10 02:57N 40°43' W 074°03'0 0.0
2018-Jul-10 02:30N 40°43' W 074°03'0 0.0
2018-Jul-10 02:00N 40°43' W 074°03'0 0.0
2018-Jul-10 01:30N 40°43' W 074°03'0 0.0
2018-Jul-10 00:59N 40°43' W 074°03'0 0.0
2018-Jul-10 00:28N 40°43' W 074°03'0 0.0
2018-Jul-09 23:58N 40°43' W 074°03'0 0.0
2018-Jul-09 23:28N 40°43' W 074°03'0 0.0
2018-Jul-09 22:52N 40°43' W 074°03'0 0.0
2018-Jul-09 22:21N 40°43' W 074°03'0 0.0
2018-Jul-09 21:58N 40°43' W 074°03'0 0.0
2018-Jul-09 21:21N 40°43' W 074°03'0 0.0
2018-Jul-09 20:56N 40°43' W 074°03'0 0.0
2018-Jul-09 20:30N 40°43' W 074°03'0 0.0
2018-Jul-09 19:58N 40°43' W 074°03'0 0.0
2018-Jul-09 19:29N 40°43' W 074°03'0 0.0
2018-Jul-09 18:58N 40°43' W 074°03'0 0.0
2018-Jul-09 18:22N 40°43' W 074°03'0 0.0
2018-Jul-09 18:01N 40°43' W 074°03'0 0.0
2018-Jul-09 17:28N 40°43' W 074°03'0 0.0
2018-Jul-09 16:56N 40°43' W 074°03'0 0.0
2018-Jul-09 16:26N 40°43' W 074°03'0 0.0
2018-Jul-09 15:59N 40°43' W 074°03'0 0.0
2018-Jul-09 15:26N 40°43' W 074°03'0 0.0
2018-Jul-09 14:56N 40°43' W 074°03'0 0.0
2018-Jul-09 14:26N 40°43' W 074°03'0 0.0
2018-Jul-09 13:58N 40°43' W 074°03'0 0.0
2018-Jul-09 13:30N 40°43' W 074°03'0 0.0
2018-Jul-09 12:55N 40°43' W 074°03'0 0.0
2018-Jul-09 12:30N 40°43' W 074°03'0 0.0
2018-Jul-09 12:00N 40°43' W 074°03'0 0.0
2018-Jul-09 11:29N 40°43' W 074°03'0 0.0
2018-Jul-09 10:57N 40°43' W 074°03'0 0.0
2018-Jul-09 10:26N 40°43' W 074°03'0 0.0
2018-Jul-09 09:58N 40°43' W 074°03'0 0.0
2018-Jul-09 09:26N 40°43' W 074°03'0 0.0
2018-Jul-09 08:56N 40°43' W 074°03'0 0.0
2018-Jul-09 08:28N 40°43' W 074°03'0 0.0
2018-Jul-09 07:58N 40°43' W 074°03'0 0.0
2018-Jul-09 07:26N 40°43' W 074°03'0 0.0
2018-Jul-09 06:56N 40°43' W 074°03'0 0.0
2018-Jul-09 06:26N 40°43' W 074°03'0 0.0
2018-Jul-09 05:56N 40°43' W 074°03'0 0.0
2018-Jul-09 05:26N 40°43' W 074°03'0 0.0
2018-Jul-09 04:56N 40°43' W 074°03'0 0.0
2018-Jul-09 04:26N 40°43' W 074°03'0 0.0
2018-Jul-09 03:57N 40°43' W 074°03'0 0.0
2018-Jul-09 03:26N 40°43' W 074°03'0 0.0
2018-Jul-09 02:59N 40°43' W 074°03'0 0.0
2018-Jul-09 02:29N 40°43' W 074°03'0 0.0
2018-Jul-09 01:59N 40°43' W 074°03'0 0.0
2018-Jul-09 01:26N 40°43' W 074°03'  
Track history (hours):
 
Tides and Currents Weather Stations Pressure Air Temp Water Temp Dewpoint Dewpoint Depression Visibility Wind Speed Wind Dir Waves Ship Positions

Wing-it

Last reported at 2018-Jul-19 01:22 UTC. Time now 2018-Jul-20 08:25 UTC.
Position N 40°43' W 074°03'.

Length 15 m; draft 2.2 m.

Type: Sailing vessel. MMSI: 338096762.

Date/timePositionNaut miles runAvg speedWind from/ knotsBaromVisibWave heightAir tempDewpointWater temp
2018-Jul-19 01:22N 40°43' W 074°03'0 0.0
2018-Jul-19 00:59N 40°43' W 074°03'0 0.0
2018-Jul-19 00:29N 40°43' W 074°03'0 0.0
2018-Jul-18 23:59N 40°43' W 074°03'0 0.0
2018-Jul-18 23:30N 40°43' W 074°03'1 2.1
2018-Jul-18 22:58N 40°42' W 074°01'1 1.1
2018-Jul-18 22:28N 40°42' W 074°02'0 0.3
2018-Jul-18 21:59N 40°43' W 074°02'  
2018-Jul-15 12:35N 40°43' W 074°03'0 0.0
2018-Jul-15 12:30N 40°43' W 074°03'0 0.0
2018-Jul-15 12:00N 40°43' W 074°03'0 0.0
2018-Jul-15 11:24N 40°43' W 074°03'0 0.0
2018-Jul-15 11:00N 40°43' W 074°03'0 0.0
2018-Jul-15 10:30N 40°43' W 074°03'0 0.0
2018-Jul-15 10:00N 40°43' W 074°03'0 0.0
2018-Jul-15 09:30N 40°43' W 074°03'0 0.0
2018-Jul-15 08:58N 40°43' W 074°03'0 0.0
2018-Jul-15 08:30N 40°43' W 074°03'0 0.0
2018-Jul-15 08:00N 40°43' W 074°03'0 0.0
2018-Jul-15 07:30N 40°43' W 074°03'0 0.0
2018-Jul-15 07:00N 40°43' W 074°03'0 0.0
2018-Jul-15 06:30N 40°43' W 074°03'0 0.0
2018-Jul-15 06:00N 40°43' W 074°03'0 0.0
2018-Jul-15 05:30N 40°43' W 074°03'0 0.0
2018-Jul-15 05:00N 40°43' W 074°03'0 0.0
2018-Jul-15 04:30N 40°43' W 074°03'0 0.0
2018-Jul-15 04:00N 40°43' W 074°03'0 0.0
2018-Jul-15 03:30N 40°43' W 074°03'0 0.0
2018-Jul-15 03:00N 40°43' W 074°03'0 0.0
2018-Jul-15 02:29N 40°43' W 074°03'0 0.0
2018-Jul-15 01:59N 40°43' W 074°03'0 0.0
2018-Jul-15 01:30N 40°43' W 074°03'0 0.0
2018-Jul-15 01:00N 40°43' W 074°03'0 0.0
2018-Jul-15 00:30N 40°43' W 074°03'0 0.0
2018-Jul-15 00:00N 40°43' W 074°03'0 0.0
2018-Jul-14 23:28N 40°43' W 074°03'0 0.0
2018-Jul-14 23:00N 40°43' W 074°03'0 0.0
2018-Jul-14 22:31N 40°43' W 074°03'2 2.9
2018-Jul-14 21:48N 40°41' W 074°02'2 0.7
2018-Jul-14 18:37N 40°38' W 074°03'0 2.5
2018-Jul-14 18:30N 40°39' W 074°03'3 4.9
2018-Jul-14 17:57N 40°41' W 074°02'1 3.2
2018-Jul-14 17:31N 40°43' W 074°03'0 0.0
2018-Jul-14 16:34N 40°43' W 074°03'0 0.0
2018-Jul-14 16:30N 40°43' W 074°03'0 0.0
2018-Jul-14 16:00N 40°43' W 074°03'0 0.0
2018-Jul-14 15:30N 40°43' W 074°03'0 0.0
2018-Jul-14 15:00N 40°43' W 074°03'0 0.0
2018-Jul-14 14:30N 40°43' W 074°03'0 0.0
2018-Jul-14 13:28N 40°43' W 074°03'0 0.0
2018-Jul-14 12:58N 40°43' W 074°03'0 0.0
2018-Jul-14 12:30N 40°43' W 074°03'0 0.0
2018-Jul-14 12:01N 40°43' W 074°03'0 0.0
2018-Jul-14 11:30N 40°43' W 074°03'0 0.0
2018-Jul-14 11:00N 40°43' W 074°03'0 0.0
2018-Jul-14 10:31N 40°43' W 074°03'0 0.0
2018-Jul-14 10:00N 40°43' W 074°03'0 0.0
2018-Jul-14 09:31N 40°43' W 074°03'0 0.0
2018-Jul-14 09:00N 40°43' W 074°03'0 0.0
2018-Jul-14 08:30N 40°43' W 074°03'0 0.0
2018-Jul-14 08:00N 40°43' W 074°03'0 0.0
2018-Jul-14 07:30N 40°43' W 074°03'0 0.0
2018-Jul-14 07:00N 40°43' W 074°03'0 0.0
2018-Jul-14 06:30N 40°43' W 074°03'0 0.0
2018-Jul-14 06:00N 40°43' W 074°03'0 0.0
2018-Jul-14 05:30N 40°43' W 074°03'0 0.0
2018-Jul-14 05:00N 40°43' W 074°03'0 0.0
2018-Jul-14 04:30N 40°43' W 074°03'0 0.0
2018-Jul-14 03:59N 40°43' W 074°03'0 0.0
2018-Jul-14 03:30N 40°43' W 074°03'0 0.0
2018-Jul-14 03:01N 40°43' W 074°03'0 0.0
2018-Jul-14 02:30N 40°43' W 074°03'0 0.0
2018-Jul-14 01:58N 40°43' W 074°03'0 0.0
2018-Jul-14 01:27N 40°43' W 074°03'0 0.0
2018-Jul-14 01:00N 40°43' W 074°03'0 0.0
2018-Jul-14 00:30N 40°43' W 074°03'0 0.0
2018-Jul-14 00:00N 40°43' W 074°03'0 0.0
2018-Jul-13 23:28N 40°43' W 074°03'0 0.0
2018-Jul-13 23:00N 40°43' W 074°03'0 0.0
2018-Jul-13 22:30N 40°43' W 074°03'0 0.0
2018-Jul-13 22:00N 40°43' W 074°03'0 0.0
2018-Jul-13 21:28N 40°43' W 074°03'0 0.0
2018-Jul-13 21:00N 40°43' W 074°03'0 0.0
2018-Jul-13 20:30N 40°43' W 074°03'0 0.0
2018-Jul-13 20:00N 40°43' W 074°03'0 0.0
2018-Jul-13 19:31N 40°43' W 074°03'0 0.0
2018-Jul-13 18:58N 40°43' W 074°03'0 0.0
2018-Jul-13 18:27N 40°43' W 074°03'0 0.0
2018-Jul-13 17:57N 40°43' W 074°03'0 0.0
2018-Jul-13 17:30N 40°43' W 074°03'0 0.0
2018-Jul-13 17:00N 40°43' W 074°03'0 0.0
2018-Jul-13 16:27N 40°43' W 074°03'0 0.0
2018-Jul-13 16:00N 40°43' W 074°03'0 0.0
2018-Jul-13 15:29N 40°43' W 074°03'0 0.0
2018-Jul-13 15:00N 40°43' W 074°03'0 0.0
2018-Jul-13 14:00N 40°43' W 074°03'0 0.0
2018-Jul-13 13:30N 40°43' W 074°03'0 0.0
2018-Jul-13 12:58N 40°43' W 074°03'0 0.0
2018-Jul-13 12:25N 40°43' W 074°03'0 0.0
2018-Jul-13 11:56N 40°43' W 074°03'0 0.0
2018-Jul-13 11:30N 40°43' W 074°03'0 0.0
2018-Jul-13 10:55N 40°43' W 074°03'0 0.0
2018-Jul-13 10:30N 40°43' W 074°03'0 0.0
2018-Jul-13 10:00N 40°43' W 074°03'0 0.0
2018-Jul-13 09:30N 40°43' W 074°03'0 0.0
2018-Jul-13 08:56N 40°43' W 074°03'0 0.0
2018-Jul-13 08:30N 40°43' W 074°03'0 0.0
2018-Jul-13 08:00N 40°43' W 074°03'0 0.0
2018-Jul-13 07:30N 40°43' W 074°03'0 0.0
2018-Jul-13 07:00N 40°43' W 074°03'0 0.0
2018-Jul-13 06:30N 40°43' W 074°03'0 0.0
2018-Jul-13 05:57N 40°43' W 074°03'0 0.0
2018-Jul-13 05:30N 40°43' W 074°03'0 0.0
2018-Jul-13 05:00N 40°43' W 074°03'0 0.0
2018-Jul-13 04:30N 40°43' W 074°03'0 0.0
2018-Jul-13 04:00N 40°43' W 074°03'0 0.0
2018-Jul-13 03:30N 40°43' W 074°03'0 0.0
2018-Jul-13 03:00N 40°43' W 074°03'0 0.0
2018-Jul-13 02:30N 40°43' W 074°03'0 0.0
2018-Jul-13 02:00N 40°43' W 074°03'0 0.0
2018-Jul-13 01:27N 40°43' W 074°03'0 0.0
2018-Jul-13 01:00N 40°43' W 074°03'0 0.0
2018-Jul-13 00:30N 40°43' W 074°03'0 0.0
2018-Jul-12 23:51N 40°43' W 074°03'0 0.0
2018-Jul-12 23:17N 40°43' W 074°03'0 0.0
2018-Jul-12 23:00N 40°43' W 074°03'0 0.0
2018-Jul-12 22:31N 40°43' W 074°03'0 0.0
2018-Jul-12 22:01N 40°43' W 074°03'0 0.0
2018-Jul-12 21:31N 40°43' W 074°03'0 0.0
2018-Jul-12 21:00N 40°43' W 074°03'0 0.0
2018-Jul-12 20:30N 40°43' W 074°03'0 0.0
2018-Jul-12 20:00N 40°43' W 074°03'0 0.0
2018-Jul-12 19:30N 40°43' W 074°03'0 0.0
2018-Jul-12 19:00N 40°43' W 074°03'0 0.0
2018-Jul-12 18:30N 40°43' W 074°03'0 0.0
2018-Jul-12 18:00N 40°43' W 074°03'0 0.0
2018-Jul-12 17:24N 40°43' W 074°03'0 0.0
2018-Jul-12 16:58N 40°43' W 074°03'0 0.0
2018-Jul-12 16:28N 40°43' W 074°03'0 0.0
2018-Jul-12 15:58N 40°43' W 074°03'0 0.0
2018-Jul-12 15:28N 40°43' W 074°03'0 0.0
2018-Jul-12 14:58N 40°43' W 074°03'0 0.0
2018-Jul-12 14:28N 40°43' W 074°03'0 0.0
2018-Jul-12 13:58N 40°43' W 074°03'0 0.0
2018-Jul-12 13:23N 40°43' W 074°03'0 0.0
2018-Jul-12 12:57N 40°43' W 074°03'0 0.0
2018-Jul-12 12:28N 40°43' W 074°03'0 0.0
2018-Jul-12 11:58N 40°43' W 074°03'0 0.0
2018-Jul-12 11:28N 40°43' W 074°03'0 0.0
2018-Jul-12 11:00N 40°43' W 074°03'0 0.0
2018-Jul-12 10:30N 40°43' W 074°03'0 0.0
2018-Jul-12 10:00N 40°43' W 074°03'0 0.0
2018-Jul-12 09:30N 40°43' W 074°03'0 0.0
2018-Jul-12 09:00N 40°43' W 074°03'0 0.0
2018-Jul-12 08:30N 40°43' W 074°03'0 0.0
2018-Jul-12 08:00N 40°43' W 074°03'0 0.0
2018-Jul-12 07:30N 40°43' W 074°03'0 0.0
2018-Jul-12 07:00N 40°43' W 074°03'0 0.0
2018-Jul-12 06:30N 40°43' W 074°03'0 0.0
2018-Jul-12 05:59N 40°43' W 074°03'0 0.0
2018-Jul-12 05:30N 40°43' W 074°03'0 0.0
2018-Jul-12 04:54N 40°43' W 074°03'0 0.0
2018-Jul-12 04:30N 40°43' W 074°03'0 0.0
2018-Jul-12 04:00N 40°43' W 074°03'0 0.0
2018-Jul-12 03:30N 40°43' W 074°03'0 0.0
2018-Jul-12 03:00N 40°43' W 074°03'0 0.0
2018-Jul-12 02:29N 40°43' W 074°03'0 0.0
2018-Jul-12 01:57N 40°43' W 074°03'0 0.0
2018-Jul-12 01:26N 40°43' W 074°03'0 0.0
2018-Jul-12 00:56N 40°43' W 074°03'0 0.0
2018-Jul-12 00:28N 40°43' W 074°03'0 0.0
2018-Jul-11 23:59N 40°43' W 074°03'1 1.2
2018-Jul-11 23:26N 40°43' W 074°02'1 2.0
2018-Jul-11 23:01N 40°42' W 074°02'1 1.5
2018-Jul-11 22:30N 40°43' W 074°02'1 0.0
2018-Jul-11 01:46N 40°43' W 074°03'0 0.0
2018-Jul-11 01:26N 40°43' W 074°03'0 0.0
2018-Jul-11 00:56N 40°43' W 074°03'0 0.0
2018-Jul-11 00:30N 40°43' W 074°03'0 0.0
2018-Jul-10 23:58N 40°43' W 074°03'0 0.0
2018-Jul-10 23:09N 40°43' W 074°03'0 0.0
2018-Jul-10 22:46N 40°43' W 074°03'0 0.0
2018-Jul-10 22:16N 40°43' W 074°03'0 0.0
2018-Jul-10 21:52N 40°43' W 074°03'0 0.0
2018-Jul-10 21:19N 40°43' W 074°03'0 0.0
2018-Jul-10 20:04N 40°43' W 074°03'0 0.0
2018-Jul-10 19:57N 40°43' W 074°03'0 0.0
2018-Jul-10 19:17N 40°43' W 074°03'0 0.0
2018-Jul-10 18:53N 40°43' W 074°03'0 0.0
2018-Jul-10 18:25N 40°43' W 074°03'0 0.0
2018-Jul-10 18:01N 40°43' W 074°03'0 0.0
2018-Jul-10 17:25N 40°43' W 074°03'0 0.0
2018-Jul-10 17:01N 40°43' W 074°03'0 0.0
2018-Jul-10 16:30N 40°43' W 074°03'0 0.0
2018-Jul-10 16:00N 40°43' W 074°03'0 0.0
2018-Jul-10 15:28N 40°43' W 074°03'0 0.0
2018-Jul-10 15:00N 40°43' W 074°03'0 0.0
2018-Jul-10 14:30N 40°43' W 074°03'0 0.0
2018-Jul-10 14:00N 40°43' W 074°03'0 0.0
2018-Jul-10 13:31N 40°43' W 074°03'0 0.0
2018-Jul-10 13:01N 40°43' W 074°03'0 0.0
2018-Jul-10 12:30N 40°43' W 074°03'0 0.0
2018-Jul-10 11:58N 40°43' W 074°03'0 0.0
2018-Jul-10 11:21N 40°43' W 074°03'0 0.0
2018-Jul-10 11:00N 40°43' W 074°03'0 0.0
2018-Jul-10 10:28N 40°43' W 074°03'0 0.0
2018-Jul-10 10:00N 40°43' W 074°03'0 0.0
2018-Jul-10 09:25N 40°43' W 074°03'0 0.0
2018-Jul-10 08:56N 40°43' W 074°03'0 0.0
2018-Jul-10 08:25N 40°43' W 074°03'0 0.0
2018-Jul-10 08:00N 40°43' W 074°03'0 0.0
2018-Jul-10 07:27N 40°43' W 074°03'0 0.0
2018-Jul-10 07:00N 40°43' W 074°03'0 0.0
2018-Jul-10 06:31N 40°43' W 074°03'0 0.0
2018-Jul-10 06:01N 40°43' W 074°03'0 0.0
2018-Jul-10 05:30N 40°43' W 074°03'0 0.0
2018-Jul-10 05:00N 40°43' W 074°03'0 0.0
2018-Jul-10 04:31N 40°43' W 074°03'0 0.0
2018-Jul-10 04:01N 40°43' W 074°03'0 0.0
2018-Jul-10 03:30N 40°43' W 074°03'0 0.0
2018-Jul-10 02:57N 40°43' W 074°03'0 0.0
2018-Jul-10 02:30N 40°43' W 074°03'0 0.0
2018-Jul-10 02:00N 40°43' W 074°03'0 0.0
2018-Jul-10 01:30N 40°43' W 074°03'0 0.0
2018-Jul-10 00:59N 40°43' W 074°03'0 0.0
2018-Jul-10 00:28N 40°43' W 074°03'0 0.0
2018-Jul-09 23:58N 40°43' W 074°03'0 0.0
2018-Jul-09 23:28N 40°43' W 074°03'0 0.0
2018-Jul-09 22:52N 40°43' W 074°03'0 0.0
2018-Jul-09 22:21N 40°43' W 074°03'0 0.0
2018-Jul-09 21:58N 40°43' W 074°03'0 0.0
2018-Jul-09 21:21N 40°43' W 074°03'0 0.0
2018-Jul-09 20:56N 40°43' W 074°03'0 0.0
2018-Jul-09 20:30N 40°43' W 074°03'0 0.0
2018-Jul-09 19:58N 40°43' W 074°03'0 0.0
2018-Jul-09 19:29N 40°43' W 074°03'0 0.0
2018-Jul-09 18:58N 40°43' W 074°03'0 0.0
2018-Jul-09 18:22N 40°43' W 074°03'0 0.0
2018-Jul-09 18:01N 40°43' W 074°03'0 0.0
2018-Jul-09 17:28N 40°43' W 074°03'0 0.0
2018-Jul-09 16:56N 40°43' W 074°03'0 0.0
2018-Jul-09 16:26N 40°43' W 074°03'0 0.0
2018-Jul-09 15:59N 40°43' W 074°03'0 0.0
2018-Jul-09 15:26N 40°43' W 074°03'0 0.0
2018-Jul-09 14:56N 40°43' W 074°03'0 0.0
2018-Jul-09 14:26N 40°43' W 074°03'0 0.0
2018-Jul-09 13:58N 40°43' W 074°03'0 0.0
2018-Jul-09 13:30N 40°43' W 074°03'0 0.0
2018-Jul-09 12:55N 40°43' W 074°03'0 0.0
2018-Jul-09 12:30N 40°43' W 074°03'0 0.0
2018-Jul-09 12:00N 40°43' W 074°03'0 0.0
2018-Jul-09 11:29N 40°43' W 074°03'0 0.0
2018-Jul-09 10:57N 40°43' W 074°03'0 0.0
2018-Jul-09 10:26N 40°43' W 074°03'0 0.0
2018-Jul-09 09:58N 40°43' W 074°03'0 0.0
2018-Jul-09 09:26N 40°43' W 074°03'0 0.0
2018-Jul-09 08:56N 40°43' W 074°03'0 0.0
2018-Jul-09 08:28N 40°43' W 074°03'0 0.0
2018-Jul-09 07:58N 40°43' W 074°03'0 0.0
2018-Jul-09 07:26N 40°43' W 074°03'0 0.0
2018-Jul-09 06:56N 40°43' W 074°03'0 0.0
2018-Jul-09 06:26N 40°43' W 074°03'0 0.0
2018-Jul-09 05:56N 40°43' W 074°03'0 0.0
2018-Jul-09 05:26N 40°43' W 074°03'0 0.0
2018-Jul-09 04:56N 40°43' W 074°03'0 0.0
2018-Jul-09 04:26N 40°43' W 074°03'0 0.0
2018-Jul-09 03:57N 40°43' W 074°03'0 0.0
2018-Jul-09 03:26N 40°43' W 074°03'0 0.0
2018-Jul-09 02:59N 40°43' W 074°03'0 0.0
2018-Jul-09 02:29N 40°43' W 074°03'0 0.0
2018-Jul-09 01:59N 40°43' W 074°03'0 0.0
2018-Jul-09 01:26N 40°43' W 074°03'  

Dump ship's entire track history